USCGC Eagle — NRCB — position and weather

sailwx.info

Track history (hours):
 
Tides and Currents Weather Stations Pressure Air Temp Water Temp Dewpoint Dewpoint Depression Visibility Wind Speed Wind Dir Waves Ship Positions

USCGC Eagle (United States)

Training ship of US Coast Guard Academy, and only square-rigger in active service in the US armed services. Ex German ship Horst Wessel.

Ship's website: http://www.cga.edu/eagle/

Last reported at 2018-Oct-08 15:01 UTC. Time now 2018-Dec-13 21:08 UTC.
Position N 39°12' W 076°34'.
Warning: this ship's position is months out of date.

Type: Military. MMSI: 303990000.

Date/timePositionNaut miles runAvg speedWind from/ knotsBaromVisibWave heightAir tempDewpointWater temp
2018-Oct-08 15:01N 39°12' W 076°34'1 1.7
2018-Oct-08 14:41N 39°12' W 076°35'2 3.3
2018-Oct-08 14:02N 39°14' W 076°33'0 6.4
2018-Oct-08 14:00N 39°14' W 076°33'3 6.4
2018-Oct-08 13:30N 39°17' W 076°35'  
2018-Oct-03 19:33N 39°16' W 076°35'0 2.0
2018-Oct-03 19:31N 39°16' W 076°35'1 1.8
2018-Oct-03 18:54N 39°15' W 076°34'3 7.7
2018-Oct-03 18:27N 39°13' W 076°32'16 6.9
2018-Oct-03 16:09N 38°58' W 076°25'0 0.1
2018-Oct-03 15:43N 38°58' W 076°25'0 0.0
2018-Oct-03 15:28N 38°58' W 076°25'0 0.0
2018-Oct-03 15:01N 38°58' W 076°25'0 0.0
2018-Oct-03 14:58N 38°58' W 076°25'0 0.0
2018-Oct-03 14:28N 38°58' W 076°25'0 0.0
2018-Oct-03 13:46N 38°58' W 076°25'0 0.0
2018-Oct-03 13:08N 38°58' W 076°25'0 0.1
2018-Oct-03 12:52N 38°58' W 076°25'0 0.0
2018-Oct-03 12:26N 38°58' W 076°25'0 0.0
2018-Oct-03 10:13N 38°58' W 076°25'0 0.0
2018-Oct-03 10:01N 38°58' W 076°25'0 0.0
2018-Oct-03 09:55N 38°58' W 076°25'0 0.0
2018-Oct-03 08:31N 38°58' W 076°25'0 0.1
2018-Oct-03 08:25N 38°58' W 076°25'0 0.0
2018-Oct-03 08:01N 38°58' W 076°25'0 0.1
2018-Oct-03 07:19N 38°58' W 076°25'0 0.0
2018-Oct-03 07:01N 38°58' W 076°25'0 0.0
2018-Oct-03 06:58N 38°58' W 076°25'0 0.0
2018-Oct-03 06:28N 38°58' W 076°25'0 0.0
2018-Oct-03 06:02N 38°58' W 076°25'0 0.0
2018-Oct-03 05:52N 38°58' W 076°25'0 0.0
2018-Oct-03 05:28N 38°58' W 076°25'0 0.0
2018-Oct-03 05:02N 38°58' W 076°25'0 0.0
2018-Oct-03 04:56N 38°58' W 076°25'0 0.0
2018-Oct-03 04:29N 38°58' W 076°25'0 0.0
2018-Oct-03 04:02N 38°58' W 076°25'0 0.1
2018-Oct-03 03:59N 38°58' W 076°25'0 0.0
2018-Oct-03 03:20N 38°58' W 076°25'0 0.0
2018-Oct-03 03:02N 38°58' W 076°25'0 0.0
2018-Oct-03 02:53N 38°58' W 076°25'0 0.0
2018-Oct-03 02:25N 38°58' W 076°25'0 0.0
2018-Oct-03 02:01N 38°58' W 076°25'0 0.0
2018-Oct-03 01:55N 38°58' W 076°25'0 0.0
2018-Oct-03 01:25N 38°58' W 076°25'0 0.0
2018-Oct-03 01:01N 38°58' W 076°25'0 0.0
2018-Oct-03 00:55N 38°58' W 076°25'0 0.0
2018-Oct-03 00:25N 38°58' W 076°25'0 0.0
2018-Oct-03 00:01N 38°58' W 076°25'0 0.0
2018-Oct-02 23:52N 38°58' W 076°25'0 0.0
2018-Oct-02 23:22N 38°58' W 076°25'0 0.0
2018-Oct-02 23:01N 38°58' W 076°25'0 0.0
2018-Oct-02 22:53N 38°58' W 076°25'0 0.0
2018-Oct-02 22:30N 38°58' W 076°25'0 0.0
2018-Oct-02 22:03N 38°58' W 076°25'0 0.1
2018-Oct-02 22:00N 38°58' W 076°25'0 0.0
2018-Oct-02 21:26N 38°58' W 076°25'0 0.8
2018-Oct-02 21:03N 38°57' W 076°25'0 6.8
2018-Oct-02 21:00N 38°57' W 076°25'  
Track history (hours):
 
Tides and Currents Weather Stations Pressure Air Temp Water Temp Dewpoint Dewpoint Depression Visibility Wind Speed Wind Dir Waves Ship Positions

USCGC Eagle (United States)

Training ship of US Coast Guard Academy, and only square-rigger in active service in the US armed services. Ex German ship Horst Wessel.

Ship's website: http://www.cga.edu/eagle/

Last reported at 2018-Oct-08 15:01 UTC. Time now 2018-Dec-13 21:08 UTC.
Position N 39°12' W 076°34'.
Warning: this ship's position is months out of date.

Type: Military. MMSI: 303990000.

Date/timePositionNaut miles runAvg speedWind from/ knotsBaromVisibWave heightAir tempDewpointWater temp
2018-Oct-08 15:01N 39°12' W 076°34'1 1.7
2018-Oct-08 14:41N 39°12' W 076°35'2 3.3
2018-Oct-08 14:02N 39°14' W 076°33'0 6.4
2018-Oct-08 14:00N 39°14' W 076°33'3 6.4
2018-Oct-08 13:30N 39°17' W 076°35'  
2018-Oct-03 19:33N 39°16' W 076°35'0 2.0
2018-Oct-03 19:31N 39°16' W 076°35'1 1.8
2018-Oct-03 18:54N 39°15' W 076°34'3 7.7
2018-Oct-03 18:27N 39°13' W 076°32'16 6.9
2018-Oct-03 16:09N 38°58' W 076°25'0 0.1
2018-Oct-03 15:43N 38°58' W 076°25'0 0.0
2018-Oct-03 15:28N 38°58' W 076°25'0 0.0
2018-Oct-03 15:01N 38°58' W 076°25'0 0.0
2018-Oct-03 14:58N 38°58' W 076°25'0 0.0
2018-Oct-03 14:28N 38°58' W 076°25'0 0.0
2018-Oct-03 13:46N 38°58' W 076°25'0 0.0
2018-Oct-03 13:08N 38°58' W 076°25'0 0.1
2018-Oct-03 12:52N 38°58' W 076°25'0 0.0
2018-Oct-03 12:26N 38°58' W 076°25'0 0.0
2018-Oct-03 10:13N 38°58' W 076°25'0 0.0
2018-Oct-03 10:01N 38°58' W 076°25'0 0.0
2018-Oct-03 09:55N 38°58' W 076°25'0 0.0
2018-Oct-03 08:31N 38°58' W 076°25'0 0.1
2018-Oct-03 08:25N 38°58' W 076°25'0 0.0
2018-Oct-03 08:01N 38°58' W 076°25'0 0.1
2018-Oct-03 07:19N 38°58' W 076°25'0 0.0
2018-Oct-03 07:01N 38°58' W 076°25'0 0.0
2018-Oct-03 06:58N 38°58' W 076°25'0 0.0
2018-Oct-03 06:28N 38°58' W 076°25'0 0.0
2018-Oct-03 06:02N 38°58' W 076°25'0 0.0
2018-Oct-03 05:52N 38°58' W 076°25'0 0.0
2018-Oct-03 05:28N 38°58' W 076°25'0 0.0
2018-Oct-03 05:02N 38°58' W 076°25'0 0.0
2018-Oct-03 04:56N 38°58' W 076°25'0 0.0
2018-Oct-03 04:29N 38°58' W 076°25'0 0.0
2018-Oct-03 04:02N 38°58' W 076°25'0 0.1
2018-Oct-03 03:59N 38°58' W 076°25'0 0.0
2018-Oct-03 03:20N 38°58' W 076°25'0 0.0
2018-Oct-03 03:02N 38°58' W 076°25'0 0.0
2018-Oct-03 02:53N 38°58' W 076°25'0 0.0
2018-Oct-03 02:25N 38°58' W 076°25'0 0.0
2018-Oct-03 02:01N 38°58' W 076°25'0 0.0
2018-Oct-03 01:55N 38°58' W 076°25'0 0.0
2018-Oct-03 01:25N 38°58' W 076°25'0 0.0
2018-Oct-03 01:01N 38°58' W 076°25'0 0.0
2018-Oct-03 00:55N 38°58' W 076°25'0 0.0
2018-Oct-03 00:25N 38°58' W 076°25'0 0.0
2018-Oct-03 00:01N 38°58' W 076°25'0 0.0
2018-Oct-02 23:52N 38°58' W 076°25'0 0.0
2018-Oct-02 23:22N 38°58' W 076°25'0 0.0
2018-Oct-02 23:01N 38°58' W 076°25'0 0.0
2018-Oct-02 22:53N 38°58' W 076°25'0 0.0
2018-Oct-02 22:30N 38°58' W 076°25'0 0.0
2018-Oct-02 22:03N 38°58' W 076°25'0 0.1
2018-Oct-02 22:00N 38°58' W 076°25'0 0.0
2018-Oct-02 21:26N 38°58' W 076°25'0 0.8
2018-Oct-02 21:03N 38°57' W 076°25'0 6.8
2018-Oct-02 21:00N 38°57' W 076°25'  

Dump ship's entire track history